createdAt,value
2015-03-18T07:17:18.574Z,49158
2015-03-18T07:17:29.074Z,49055
2015-03-18T07:17:40.074Z,48968
2015-03-18T07:17:50.621Z,48849
2015-03-18T07:18:01.230Z,48831
2015-03-18T07:18:11.780Z,48746
2015-03-18T07:18:22.312Z,48668
2015-03-18T07:18:32.812Z,48398
2015-03-18T07:18:43.327Z,48529
2015-03-18T07:18:53.843Z,48366
2015-03-18T07:19:04.343Z,48356
2015-03-18T07:19:14.892Z,48418
2015-03-18T07:19:25.407Z,38653
2015-03-18T07:19:35.985Z,10177
2015-03-18T07:19:46.501Z,10376
2015-03-18T07:19:57.017Z,10277
2015-03-18T07:20:07.532Z,10240
2015-03-18T07:20:18.051Z,10185
2015-03-18T07:20:28.535Z,10177
2015-03-18T07:20:39.082Z,10140
2015-03-18T07:20:49.613Z,10140
2015-03-18T07:21:00.129Z,10140
2015-03-18T07:21:10.676Z,10122
2015-03-18T07:21:21.225Z,10094
2015-03-18T07:21:31.725Z,10121
2015-03-18T07:21:42.725Z,9924
2015-03-18T07:21:53.256Z,10064
2015-03-18T07:22:04.100Z,10127
2015-03-18T07:22:14.603Z,10117
2015-03-18T07:22:25.150Z,10117
2015-03-18T07:22:35.681Z,10099
2015-03-18T07:22:46.197Z,10099
2015-03-18T07:22:56.712Z,10071
2015-03-18T07:23:07.228Z,10089
2015-03-18T07:23:17.761Z,10071
2015-03-18T07:23:28.308Z,9821
2015-03-18T07:23:38.808Z,11418
2015-03-18T07:23:49.417Z,11778
2015-03-18T07:24:00.027Z,11865
2015-03-18T07:24:10.667Z,11837
2015-03-18T07:24:21.169Z,11537
2015-03-18T07:24:31.716Z,11535
2015-03-18T07:24:42.232Z,11554
2015-03-18T07:24:52.747Z,11681
2015-03-18T07:25:03.279Z,11778
2015-03-18T07:25:13.966Z,11723
2015-03-18T07:25:24.499Z,11325
2015-03-18T07:25:35.031Z,11714
2015-03-18T07:25:46.109Z,11505
2015-03-18T07:25:56.624Z,11497
2015-03-18T07:26:07.281Z,11507
2015-03-18T07:26:17.986Z,11462
2015-03-18T07:26:28.580Z,11495
2015-03-18T07:26:39.142Z,11477
2015-03-18T07:26:49.658Z,11412
2015-03-18T07:27:00.173Z,11362
2015-03-18T07:27:10.814Z,11355
2015-03-18T07:27:21.347Z,11348
2015-03-18T07:27:31.878Z,11441
2015-03-18T07:28:40.148Z,11339
2015-03-18T07:28:50.664Z,11722
2015-03-18T07:29:01.289Z,11517
2015-03-18T07:29:11.961Z,11276
2015-03-18T07:29:22.492Z,11342
2015-03-18T07:29:33.197Z,11335
2015-03-18T07:29:43.759Z,11267
2015-03-18T07:29:54.291Z,11320
2015-03-18T07:30:04.822Z,11422
2015-03-18T07:30:15.447Z,11321
2015-03-18T07:30:25.965Z,11263
2015-03-18T07:30:36.480Z,11271
2015-03-18T07:30:47.058Z,11233
2015-03-18T07:30:57.636Z,11223
2015-03-18T07:31:08.277Z,11205
2015-03-18T07:31:18.808Z,11111
2015-03-18T07:31:29.358Z,11130
2015-03-18T07:31:40.436Z,11103
2015-03-18T07:31:51.014Z,11113
2015-03-18T07:32:01.608Z,11103
2015-03-18T07:32:12.124Z,11078
2015-03-18T07:32:22.655Z,11086
2015-03-18T07:32:33.173Z,11086
2015-03-18T07:32:43.720Z,11114
2015-03-18T07:32:54.235Z,11133
2015-03-18T07:33:04.766Z,11104
2015-03-18T07:33:15.282Z,11094
2015-03-18T07:33:26.050Z,11066
2015-03-18T07:33:36.581Z,11058
2015-03-18T07:33:47.128Z,11070
2015-03-18T07:33:57.659Z,11036
2015-03-18T07:34:08.206Z,11055
2015-03-18T07:34:18.768Z,11063
2015-03-18T07:34:29.286Z,11063
2015-03-18T07:34:39.849Z,11045
2015-03-18T07:34:50.364Z,11055
2015-03-18T07:35:00.880Z,11036
2015-03-18T07:35:11.458Z,11036
2015-03-18T07:35:21.958Z,11026
2015-03-18T07:35:32.586Z,11026
2015-03-18T07:35:43.133Z,11045
2015-03-18T07:35:53.648Z,11055
2015-03-18T07:36:04.164Z,11029
2015-03-18T07:36:14.680Z,11039
2015-03-18T07:36:25.242Z,10777
2015-03-18T07:36:35.854Z,10632
2015-03-18T07:36:46.354Z,10659
2015-03-18T07:36:57.525Z,10661
2015-03-18T07:37:08.057Z,10647
2015-03-18T07:37:18.588Z,10639
2015-03-18T07:37:29.107Z,10656
2015-03-18T07:37:40.607Z,10642
2015-03-18T07:37:51.107Z,10677
2015-03-18T07:38:01.653Z,10686
2015-03-18T07:38:12.232Z,10674
2015-03-18T07:38:22.778Z,10614
2015-03-18T07:38:33.437Z,10613
2015-03-18T07:38:43.937Z,10571
2015-03-18T07:38:54.468Z,10543
2015-03-18T07:39:05.015Z,10553
2015-03-18T07:39:15.546Z,10516
2015-03-18T07:39:26.077Z,10423
2015-03-18T07:39:36.595Z,10423
2015-03-18T07:39:47.142Z,11147
2015-03-18T07:39:57.657Z,11194
2015-03-18T07:40:08.204Z,11177
2015-03-18T07:40:18.736Z,11140
2015-03-18T07:40:29.253Z,11140
2015-03-18T07:40:39.800Z,11132
2015-03-18T07:40:50.581Z,11124
2015-03-18T07:41:01.128Z,11115
2015-03-18T07:41:11.581Z,11078
2015-03-18T07:41:22.066Z,11108
2015-03-18T07:41:32.584Z,11100
2015-03-18T07:41:43.100Z,11092
2015-03-18T07:41:53.616Z,11102
2015-03-18T07:42:04.131Z,11083
2015-03-18T07:42:14.725Z,11038
2015-03-18T07:42:25.225Z,11048
2015-03-18T07:42:35.789Z,11086
2015-03-18T07:42:46.352Z,11030
2015-03-18T07:42:56.868Z,11021
2015-03-18T07:43:07.399Z,11021
2015-03-18T07:43:17.961Z,11023
2015-03-18T07:43:28.493Z,10995
2015-03-18T07:43:39.026Z,11005
2015-03-18T07:43:49.604Z,10996
2015-03-18T07:44:00.135Z,10978
2015-03-18T07:44:10.666Z,10988
2015-03-18T07:44:21.245Z,10951
2015-03-18T07:44:31.762Z,10961
2015-03-18T07:44:42.278Z,10916
2015-03-18T07:44:52.778Z,10891
2015-03-18T07:45:03.340Z,10887
2015-03-18T07:45:13.840Z,10827
2015-03-18T07:45:24.372Z,10765
2015-03-18T07:45:34.921Z,10760
2015-03-18T07:45:45.468Z,10745
2015-03-18T07:45:56.015Z,10638
2015-03-18T07:46:06.656Z,10725
2015-03-18T07:46:17.156Z,10743
2015-03-18T07:46:27.656Z,10762
2015-03-18T07:46:38.189Z,10735
2015-03-18T07:46:48.767Z,10745
2015-03-18T07:46:59.298Z,10735
2015-03-18T07:47:09.798Z,10745
2015-03-18T07:47:20.283Z,10735
2015-03-18T07:47:30.817Z,10710
2015-03-18T07:47:41.317Z,10718
2015-03-18T07:47:51.848Z,10755
2015-03-18T07:48:02.380Z,10720
2015-03-18T07:48:13.051Z,10735
2015-03-18T07:48:23.614Z,10773
2015-03-18T07:48:34.163Z,10755
2015-03-18T07:48:44.647Z,10747
2015-03-18T07:48:55.210Z,10728
2015-03-18T07:49:05.835Z,10757
2015-03-18T07:49:16.366Z,10738
2015-03-18T07:49:26.882Z,10757
2015-03-18T07:49:37.525Z,10738
2015-03-18T07:49:48.025Z,10777
2015-03-18T07:49:58.541Z,10765
2015-03-18T07:50:09.103Z,10755
2015-03-18T07:50:19.619Z,10738
2015-03-18T07:50:30.181Z,10775
2015-03-18T07:50:40.699Z,10793
2015-03-18T07:50:51.340Z,10793
2015-03-18T07:51:01.840Z,10793
2015-03-18T07:51:12.480Z,10803
2015-03-18T07:51:23.090Z,10813
2015-03-18T07:51:33.732Z,10748
2015-03-18T07:51:44.248Z,10740
2015-03-18T07:51:54.764Z,10732
2015-03-18T07:52:05.670Z,10723
2015-03-18T07:52:16.185Z,10715
2015-03-18T07:52:26.701Z,10706
2015-03-18T07:52:37.297Z,10725
2015-03-18T07:52:47.891Z,10718
2015-03-18T07:52:58.406Z,10673
2015-03-18T07:53:08.953Z,10693
2015-03-18T07:53:19.672Z,10694
2015-03-18T07:53:30.203Z,10686
2015-03-18T07:53:40.690Z,10668
2015-03-18T07:53:51.237Z,10679
2015-03-18T07:54:01.722Z,10651
2015-03-18T07:54:12.269Z,10659
2015-03-18T07:54:22.784Z,10676
2015-03-18T07:54:33.315Z,10716
2015-03-18T07:54:43.833Z,10464
2015-03-18T07:54:54.411Z,10434
2015-03-18T07:55:04.958Z,10501
2015-03-18T07:55:15.489Z,10288
2015-03-18T07:55:25.974Z,10703
2015-03-18T07:55:36.773Z,10656
2015-03-18T07:55:47.273Z,10621
2015-03-18T07:55:57.819Z,10669
2015-03-18T07:56:08.898Z,10659
2015-03-18T07:56:19.460Z,10669
2015-03-18T07:56:29.991Z,10671
2015-03-18T07:56:40.540Z,10663
2015-03-18T07:56:51.071Z,10654
2015-03-18T07:57:01.603Z,10664
2015-03-18T07:57:12.165Z,10646
2015-03-18T07:57:22.759Z,10666
2015-03-18T07:57:33.306Z,10657
2015-03-18T07:57:43.824Z,10649
2015-03-18T07:57:54.356Z,10642
2015-03-18T07:58:04.887Z,10700
2015-03-18T07:58:15.418Z,10690
2015-03-18T07:58:25.934Z,10681
2015-03-18T07:58:36.465Z,10681
2015-03-18T07:58:47.030Z,10673
2015-03-18T07:58:57.576Z,10707
2015-03-18T07:59:08.123Z,10617
2015-03-18T07:59:18.655Z,10681
2015-03-18T07:59:29.139Z,10690
2015-03-18T07:59:40.328Z,10698
2015-03-18T07:59:50.860Z,10681
2015-03-18T08:00:01.344Z,10714
2015-03-18T08:00:11.860Z,10689
2015-03-18T08:00:22.407Z,10704
2015-03-18T08:00:32.985Z,10704
2015-03-18T08:00:43.597Z,10694
2015-03-18T08:00:54.081Z,10668
2015-03-18T08:01:04.613Z,10657
2015-03-18T08:01:15.128Z,10663
2015-03-18T08:01:25.660Z,10669
2015-03-18T08:01:36.175Z,10635
2015-03-18T08:02:41.523Z,10651
2015-03-18T08:02:52.179Z,10610
2015-03-18T08:03:02.789Z,10602
2015-03-18T08:03:13.289Z,10593
2015-03-18T08:03:23.804Z,10617
2015-03-18T08:03:34.351Z,10600
2015-03-18T08:03:44.884Z,10633
2015-03-18T08:03:55.431Z,10624
2015-03-18T08:04:06.009Z,10419
2015-03-18T08:04:17.197Z,10428
2015-03-18T08:04:27.712Z,10439
2015-03-18T08:04:38.306Z,10497
2015-03-18T08:04:48.840Z,10476
2015-03-18T08:04:59.387Z,10463
2015-03-18T08:05:10.059Z,10680
2015-03-18T08:05:20.575Z,10699
2015-03-18T08:05:31.122Z,10708
2015-03-18T08:05:42.125Z,10708
2015-03-18T08:05:52.687Z,10723
2015-03-18T08:06:03.203Z,10699
2015-03-18T08:06:13.734Z,10714
2015-03-18T08:06:24.250Z,10662
2015-03-18T08:06:34.765Z,10668
2015-03-18T08:06:45.283Z,10642
2015-03-18T08:06:55.845Z,10676
2015-03-18T08:07:06.392Z,10685
2015-03-18T08:07:16.939Z,10685
2015-03-18T08:07:27.533Z,10660
2015-03-18T08:07:38.080Z,10643
2015-03-18T08:07:48.597Z,10677
2015-03-18T08:07:59.113Z,10660
2015-03-18T08:08:09.754Z,10660
2015-03-18T08:08:20.269Z,10608
2015-03-18T08:08:30.801Z,10623
2015-03-18T08:08:41.301Z,10605
2015-03-18T08:08:51.866Z,10560
2015-03-18T08:09:02.429Z,10582
2015-03-18T08:09:12.991Z,10542
2015-03-18T08:09:23.475Z,10495
2015-03-18T08:09:34.100Z,10464
2015-03-18T08:09:44.681Z,10436
2015-03-18T08:09:55.227Z,10462
2015-03-18T08:10:05.837Z,10492
2015-03-18T08:10:16.368Z,10496
2015-03-18T08:10:27.602Z,10507
2015-03-18T08:10:38.134Z,10514
2015-03-18T08:10:48.636Z,10522
2015-03-18T08:10:59.183Z,10331
2015-03-18T08:11:09.729Z,10306
2015-03-18T08:11:20.261Z,10333
2015-03-18T08:11:30.761Z,10334
2015-03-18T08:11:41.276Z,10333
2015-03-18T08:11:51.810Z,10708
2015-03-18T08:12:02.310Z,10708
2015-03-18T08:12:12.763Z,10716
2015-03-18T08:12:23.263Z,10689
2015-03-18T08:12:33.778Z,10680
2015-03-18T08:12:44.313Z,10671
2015-03-18T08:12:54.828Z,10669
2015-03-18T08:13:05.781Z,10651
2015-03-18T08:13:16.328Z,10632
2015-03-18T08:13:26.906Z,10648
2015-03-18T08:13:37.516Z,10631
2015-03-18T08:13:48.049Z,10623
2015-03-18T08:13:58.549Z,10616
2015-03-18T08:14:09.143Z,10458
2015-03-18T08:14:19.690Z,10528
2015-03-18T08:14:30.205Z,10572
2015-03-18T08:14:40.752Z,10512
2015-03-18T08:14:51.318Z,10000
2015-03-18T08:15:01.864Z,8912
2015-03-18T08:15:12.411Z,7757
2015-03-18T08:15:23.583Z,10481
2015-03-18T08:15:34.083Z,10244
2015-03-18T08:15:44.630Z,10225
2015-03-18T08:15:55.195Z,10186
2015-03-18T08:16:05.741Z,10671
2015-03-18T08:16:16.226Z,10653
2015-03-18T08:16:26.726Z,10651
2015-03-18T08:16:37.241Z,10650
2015-03-18T08:17:41.525Z,10624
2015-03-18T08:17:52.292Z,10564
2015-03-18T08:18:03.777Z,10561
2015-03-18T08:18:14.261Z,10533
2015-03-18T08:18:24.808Z,10461
2015-03-18T08:18:35.324Z,10393
2015-03-18T08:18:45.824Z,10355
2015-03-18T08:18:56.326Z,10346
2015-03-18T08:19:06.826Z,10317
2015-03-18T08:19:17.388Z,10289
2015-03-18T08:19:27.904Z,10014
2015-03-18T08:19:38.435Z,9972
2015-03-18T08:19:49.079Z,9980
2015-03-18T08:20:00.250Z,9989
2015-03-18T08:20:10.813Z,10077
2015-03-18T08:20:21.360Z,10088
2015-03-18T08:20:31.922Z,10115
2015-03-18T08:20:42.360Z,10018
2015-03-18T08:20:52.846Z,10032
2015-03-18T08:21:04.034Z,10051
2015-03-18T08:21:14.534Z,10004
2015-03-18T08:21:25.081Z,9995
2015-03-18T08:21:35.737Z,10003
2015-03-18T08:21:46.221Z,9986
2015-03-18T08:21:56.740Z,9993
2015-03-18T08:22:07.302Z,10001
2015-03-18T08:22:17.802Z,9976
2015-03-18T08:22:28.318Z,9945
2015-03-18T08:22:38.818Z,10255
2015-03-18T08:22:49.382Z,10253
2015-03-18T08:22:59.992Z,10253
2015-03-18T08:23:10.507Z,10210
2015-03-18T08:23:21.586Z,10210
2015-03-18T08:23:32.086Z,10226
2015-03-18T08:23:42.539Z,10217
2015-03-18T08:23:53.072Z,10175
2015-03-18T08:24:03.588Z,10217
2015-03-18T08:24:14.119Z,10207
2015-03-18T08:24:24.634Z,10189
2015-03-18T08:24:35.166Z,10198
2015-03-18T08:24:45.650Z,10238
2015-03-18T08:24:56.200Z,10215
2015-03-18T08:25:06.653Z,10181
2015-03-18T08:25:17.356Z,10198
2015-03-18T08:25:27.856Z,10190
2015-03-18T08:25:38.419Z,10207
2015-03-18T08:25:48.950Z,10190
2015-03-18T08:25:59.468Z,10164
2015-03-18T08:26:10.061Z,10181
2015-03-18T08:26:20.608Z,10209
2015-03-18T08:26:31.155Z,10131
2015-03-18T08:26:41.655Z,10192
2015-03-18T08:26:52.141Z,10110
2015-03-18T08:27:02.673Z,10188
2015-03-18T08:27:13.266Z,10181
2015-03-18T08:27:23.829Z,10205
2015-03-18T08:27:34.329Z,10188
2015-03-18T08:27:44.876Z,10162
2015-03-18T08:27:55.410Z,10170
2015-03-18T08:28:05.941Z,10134
2015-03-18T08:28:16.504Z,10108
2015-03-18T08:28:27.176Z,10107
2015-03-18T08:28:37.644Z,10071
2015-03-18T08:28:48.191Z,10070
2015-03-18T08:28:58.693Z,10068
2015-03-18T08:29:09.209Z,10042
2015-03-18T08:29:19.756Z,10024
2015-03-18T08:29:30.318Z,9908
2015-03-18T08:29:40.850Z,10044
2015-03-18T08:29:51.443Z,9993
2015-03-18T08:30:02.023Z,10001
2015-03-18T08:30:12.586Z,9940
2015-03-18T08:30:23.242Z,9931
2015-03-18T08:30:33.789Z,9931
2015-03-18T08:30:44.992Z,9973
2015-03-18T08:30:55.525Z,9922
2015-03-18T08:31:06.025Z,9905
2015-03-18T08:31:16.525Z,9896
2015-03-18T08:31:27.041Z,9894
2015-03-18T08:31:37.713Z,9893
2015-03-18T08:31:48.275Z,9884
2015-03-18T08:31:58.778Z,9850
2015-03-18T08:32:09.341Z,9899
2015-03-18T08:32:19.825Z,9907
2015-03-18T08:32:30.325Z,9899
2015-03-18T08:32:40.997Z,9803
2015-03-18T08:32:52.107Z,9819
2015-03-18T08:33:02.640Z,9793
2015-03-18T08:33:13.140Z,9784
2015-03-18T08:33:23.765Z,9799
2015-03-18T08:33:34.296Z,9773
2015-03-18T08:33:44.812Z,9764
2015-03-18T08:33:55.362Z,9762
2015-03-18T08:34:05.893Z,9490
2015-03-18T08:34:16.440Z,9496
2015-03-18T08:34:26.955Z,9456
2015-03-18T08:34:37.487Z,9472
2015-03-18T08:34:48.502Z,9445
2015-03-18T08:34:59.035Z,9453
2015-03-18T08:35:09.645Z,9475
2015-03-18T08:35:20.254Z,9476
2015-03-18T08:35:30.770Z,9476
2015-03-18T08:35:41.348Z,9493
2015-03-18T08:35:51.957Z,9486
2015-03-18T08:36:02.428Z,9464
2015-03-18T08:36:12.975Z,9511
2015-03-18T08:36:23.491Z,9495
2015-03-18T08:36:34.006Z,9505
2015-03-18T08:36:44.631Z,9473
2015-03-18T08:36:55.147Z,9473
2015-03-18T08:37:05.681Z,9507
2015-03-18T08:37:16.244Z,9534
2015-03-18T08:37:26.775Z,9534
2015-03-18T08:37:37.478Z,9534
2015-03-18T08:37:48.009Z,9525
2015-03-18T08:37:58.558Z,9507
2015-03-18T08:38:09.089Z,9666
2015-03-18T08:38:19.605Z,9693
2015-03-18T08:38:30.121Z,9710
2015-03-18T08:38:40.574Z,9690
2015-03-18T08:38:51.074Z,9679
2015-03-18T08:39:02.123Z,9678
2015-03-18T08:39:12.638Z,9680
2015-03-18T08:39:23.169Z,9501
2015-03-18T08:39:33.763Z,9508
2015-03-18T08:39:44.326Z,9480
2015-03-18T08:39:54.998Z,9463
2015-03-18T08:40:05.718Z,9456
2015-03-18T08:40:16.265Z,9451
2015-03-18T08:40:26.843Z,9717
2015-03-18T08:40:37.359Z,9576
2015-03-18T08:40:47.890Z,9433
2015-03-18T08:40:58.361Z,9653
2015-03-18T08:41:08.845Z,9636
2015-03-18T08:41:19.345Z,9608
2015-03-18T08:41:29.892Z,9597
2015-03-18T08:41:40.439Z,9341
2015-03-18T08:41:50.955Z,9340
2015-03-18T08:42:01.489Z,9223
2015-03-18T08:42:12.005Z,9392
2015-03-18T08:42:22.567Z,9222
2015-03-18T08:42:33.098Z,9319
2015-03-18T08:42:43.614Z,9301
2015-03-18T08:42:54.145Z,9282
2015-03-18T08:43:04.648Z,9272
2015-03-18T08:43:15.226Z,9256
2015-03-18T08:43:25.758Z,9275
2015-03-18T08:43:36.273Z,9275
2015-03-18T08:43:46.804Z,9267
2015-03-18T08:43:57.320Z,9267
2015-03-18T08:44:07.884Z,9284
2015-03-18T08:44:18.446Z,9267
2015-03-18T08:44:29.009Z,9258
2015-03-18T08:44:39.587Z,9347
2015-03-18T08:44:50.180Z,9265
2015-03-18T08:45:00.824Z,9206
2015-03-18T08:45:11.433Z,9206
2015-03-18T08:45:22.590Z,9196
2015-03-18T08:45:33.730Z,9204
2015-03-18T08:45:44.262Z,9187
2015-03-18T08:45:54.777Z,9203
2015-03-18T08:46:05.326Z,9203
2015-03-18T08:46:15.920Z,9186
2015-03-18T08:46:26.435Z,9162
2015-03-18T08:46:36.967Z,9179
2015-03-18T08:46:47.482Z,9196
2015-03-18T08:46:58.029Z,9189
2015-03-18T08:47:08.547Z,9164
2015-03-18T08:47:19.172Z,9173
2015-03-18T08:47:29.797Z,9190
2015-03-18T08:47:40.281Z,9164
2015-03-18T08:47:50.812Z,9241
2015-03-18T08:48:01.347Z,9181
2015-03-18T08:48:11.878Z,9118
2015-03-18T08:48:22.425Z,9099
2015-03-18T08:48:33.019Z,9132
2015-03-18T08:48:43.534Z,9174
2015-03-18T08:48:54.034Z,9140
2015-03-18T08:49:04.583Z,9123
2015-03-18T08:49:15.302Z,9121
2015-03-18T08:49:25.786Z,9130
2015-03-18T08:49:36.349Z,9115
2015-03-18T08:49:46.896Z,9133
2015-03-18T08:49:57.396Z,9110
2015-03-18T08:50:07.929Z,9133
2015-03-18T08:50:18.460Z,9143
2015-03-18T08:50:28.976Z,9158
2015-03-18T08:50:39.491Z,9124
2015-03-18T08:50:50.116Z,9132
2015-03-18T08:51:00.648Z,9130
2015-03-18T08:51:11.197Z,9144
2015-03-18T08:51:21.697Z,9196
2015-03-18T08:51:32.182Z,9125
2015-03-18T08:51:42.729Z,9142
2015-03-18T08:51:53.244Z,9269
2015-03-18T08:52:03.746Z,9238
2015-03-18T08:52:14.246Z,9185
2015-03-18T08:52:24.793Z,9228
2015-03-18T08:52:35.403Z,9213
2015-03-18T08:52:45.918Z,9222
2015-03-18T08:52:56.356Z,9206
2015-03-18T08:53:06.859Z,9124
2015-03-18T08:53:17.406Z,9163
2015-03-18T08:53:27.968Z,9146
